Terminal Aerodrome Forecast
Issued by NWS Glasgow, MT

Home | Current Version | Previous Version | Text Only | Print | Product List | Glossary On
Versions: 1 2 3 4 5 6 7 8 9 10 11 12 13 14 15 16 17
651
FTUS45 KGGW 131145 CCA
TAFGGW
TAF COR
KGGW 131145Z 1312/1412 11012KT P6SM SCT012
     FM131400 11007KT P6SM BKN035
     FM131800 20005KT P6SM VCSH BKN040
     FM132100 27009KT P6SM VCSH OVC100
     FM140000 29013KT P6SM BKN070
     FM140900 28009KT P6SM BKN150=

USA.gov is the U.S. government's official web portal to all federal, state and local government web resources and services.